createdAt,value
2018-12-26T00:02:16.073Z,5.89
2018-12-26T00:05:04.309Z,5.94
2018-12-26T00:07:45.444Z,5.90
2018-12-26T00:10:33.449Z,5.91
2018-12-26T00:13:16.241Z,5.88
2018-12-26T00:16:04.265Z,5.88
2018-12-26T00:18:45.408Z,5.90
2018-12-26T00:21:33.518Z,5.86
2018-12-26T00:24:14.159Z,5.91
2018-12-26T00:27:02.074Z,5.92
2018-12-26T00:29:45.215Z,5.99
2018-12-26T00:32:33.389Z,5.89
2018-12-26T00:35:14.297Z,5.86
2018-12-26T00:38:02.665Z,5.95
2018-12-26T00:40:43.665Z,5.80
2018-12-26T00:43:32.172Z,5.82
2018-12-26T00:46:12.945Z,5.88
2018-12-26T00:49:00.996Z,5.80
2018-12-26T00:51:42.132Z,5.74
2018-12-26T00:54:30.459Z,5.77
2018-12-26T00:57:10.992Z,5.68
2018-12-26T00:59:58.819Z,5.64
2018-12-26T01:02:41.967Z,5.63
2018-12-26T01:05:30.130Z,5.58
2018-12-26T01:08:11.232Z,5.53
2018-12-26T01:10:59.160Z,5.45
2018-12-26T01:13:40.051Z,5.48
2018-12-26T01:16:28.247Z,5.54
2018-12-26T01:19:08.982Z,5.56
2018-12-26T01:21:57.038Z,5.55
2018-12-26T01:24:38.553Z,5.55
2018-12-26T01:27:07.559Z,5.59
2018-12-26T01:29:48.839Z,5.53
2018-12-26T01:32:36.860Z,5.64
2018-12-26T01:35:17.653Z,5.59
2018-12-26T01:38:05.829Z,5.61
2018-12-26T01:40:46.493Z,5.58
2018-12-26T01:43:34.563Z,5.62
2018-12-26T01:46:15.407Z,5.60
2018-12-26T01:49:03.569Z,5.67
2018-12-26T01:51:44.362Z,5.65
2018-12-26T01:54:32.499Z,5.60
2018-12-26T01:57:13.610Z,5.67
2018-12-26T02:00:01.807Z,5.72
2018-12-26T02:02:42.583Z,5.73
2018-12-26T02:05:30.720Z,5.71
2018-12-26T02:08:11.555Z,5.80
2018-12-26T02:10:59.617Z,5.68
2018-12-26T02:13:40.833Z,5.70
2018-12-26T02:16:09.471Z,5.71
2018-12-26T02:18:52.188Z,5.75
2018-12-26T02:21:40.867Z,5.73
2018-12-26T02:24:22.025Z,5.80
2018-12-26T02:27:10.062Z,5.78
2018-12-26T02:29:51.370Z,5.81
2018-12-26T02:32:39.664Z,5.76
2018-12-26T02:35:22.512Z,5.63
2018-12-26T02:38:10.481Z,5.65
2018-12-26T02:40:51.508Z,5.63
2018-12-26T02:43:39.681Z,5.59
2018-12-26T02:46:20.842Z,5.67
2018-12-26T02:49:08.965Z,5.61
2018-12-26T02:51:49.985Z,5.65
2018-12-26T02:54:38.332Z,5.56
2018-12-26T02:57:20.826Z,5.48
2018-12-26T03:00:09.026Z,5.55
2018-12-26T03:02:49.941Z,5.53
2018-12-26T03:05:38.036Z,5.50
2018-12-26T03:08:06.837Z,5.53
2018-12-26T03:10:55.045Z,5.44
2018-12-26T03:13:35.869Z,5.50
2018-12-26T03:16:23.876Z,5.47
2018-12-26T03:19:05.195Z,5.45
2018-12-26T03:21:53.209Z,5.42
2018-12-26T03:24:34.041Z,5.54
2018-12-26T03:27:23.168Z,5.36
2018-12-26T03:30:04.411Z,5.47
2018-12-26T03:32:52.431Z,5.32
2018-12-26T03:35:33.389Z,5.36
2018-12-26T03:38:21.463Z,5.32
2018-12-26T03:41:02.300Z,5.32
2018-12-26T03:43:50.664Z,5.24
2018-12-26T03:46:33.057Z,5.23
2018-12-26T03:49:21.695Z,5.23
2018-12-26T03:52:02.293Z,5.20
2018-12-26T03:54:50.626Z,5.13
2018-12-26T03:57:33.231Z,5.18
2018-12-26T04:00:21.456Z,5.16
2018-12-26T04:03:01.918Z,5.15
2018-12-26T04:05:49.986Z,5.13
2018-12-26T04:08:30.975Z,5.16
2018-12-26T04:11:19.289Z,5.21
2018-12-26T04:13:59.943Z,5.20
2018-12-26T04:16:47.969Z,5.23
2018-12-26T04:19:30.495Z,5.20
2018-12-26T04:22:18.828Z,5.31
2018-12-26T04:25:02.016Z,5.23
2018-12-26T04:27:49.953Z,5.33
2018-12-26T04:30:30.709Z,5.36
2018-12-26T04:33:18.635Z,5.38
2018-12-26T04:36:01.301Z,5.35
2018-12-26T04:38:49.438Z,5.34
2018-12-26T04:41:30.275Z,5.34
2018-12-26T04:44:18.261Z,5.42
2018-12-26T04:46:59.345Z,5.33
2018-12-26T04:49:47.268Z,5.39
2018-12-26T04:52:28.297Z,5.31
2018-12-26T04:55:16.387Z,5.37
2018-12-26T04:57:57.541Z,5.33
2018-12-26T05:00:45.687Z,5.32
2018-12-26T05:03:26.441Z,5.35
2018-12-26T05:06:14.384Z,5.37
2018-12-26T05:08:55.336Z,5.33
2018-12-26T05:11:43.372Z,5.49
2018-12-26T05:14:24.010Z,5.43
2018-12-26T05:17:12.056Z,5.47
2018-12-26T05:19:54.859Z,5.38
2018-12-26T05:22:43.673Z,5.44
2018-12-26T05:25:22.760Z,5.45
2018-12-26T05:28:11.846Z,5.52
2018-12-26T05:30:52.342Z,5.40
2018-12-26T05:33:40.288Z,5.46
2018-12-26T05:36:21.547Z,5.53
2018-12-26T05:39:09.632Z,5.52
2018-12-26T05:41:50.771Z,5.51
2018-12-26T05:44:38.569Z,5.59
2018-12-26T05:47:19.650Z,5.62
2018-12-26T05:50:07.654Z,5.59
2018-12-26T05:52:48.215Z,5.56
2018-12-26T05:55:36.508Z,5.52
2018-12-26T05:58:39.276Z,5.62
2018-12-26T06:01:27.400Z,5.60
2018-12-26T06:04:08.591Z,5.67
2018-12-26T06:06:56.492Z,5.67
2018-12-26T06:09:37.177Z,5.62
2018-12-26T06:12:25.331Z,5.66
2018-12-26T06:15:06.423Z,5.69
2018-12-26T06:17:54.500Z,5.64
2018-12-26T06:20:35.713Z,5.67
2018-12-26T06:23:23.837Z,5.66
2018-12-26T06:26:05.063Z,5.66
2018-12-26T06:28:53.024Z,5.66
2018-12-26T06:31:33.899Z,5.72
2018-12-26T06:34:21.993Z,5.74
2018-12-26T06:37:03.394Z,5.76
2018-12-26T06:39:51.381Z,5.76
2018-12-26T06:42:32.639Z,5.70
2018-12-26T06:45:20.585Z,5.80
2018-12-26T06:48:01.970Z,5.79
2018-12-26T06:50:50.236Z,5.80
2018-12-26T06:53:31.238Z,5.84
2018-12-26T06:56:19.325Z,5.82
2018-12-26T06:59:00.175Z,5.84
2018-12-26T07:01:48.035Z,5.84
2018-12-26T07:04:29.461Z,5.80
2018-12-26T07:07:18.472Z,5.77
2018-12-26T07:09:59.709Z,5.75
2018-12-26T07:12:47.685Z,5.83
2018-12-26T07:15:28.655Z,5.80
2018-12-26T07:18:16.804Z,5.91
2018-12-26T07:20:57.545Z,5.91
2018-12-26T07:23:25.926Z,5.90
2018-12-26T07:26:07.322Z,5.95
2018-12-26T07:28:55.443Z,6.03
2018-12-26T07:31:36.544Z,5.92
2018-12-26T07:34:24.567Z,5.91
2018-12-26T07:37:07.150Z,5.93
2018-12-26T07:39:55.185Z,5.87
2018-12-26T07:42:36.054Z,5.84
2018-12-26T07:45:25.448Z,5.83
2018-12-26T07:48:06.446Z,5.91
2018-12-26T07:50:54.364Z,5.89
2018-12-26T07:53:33.289Z,5.95
2018-12-26T07:56:21.268Z,5.95
2018-12-26T07:59:02.310Z,5.97
2018-12-26T08:01:50.399Z,5.89
2018-12-26T08:04:31.335Z,5.94
2018-12-26T08:07:19.263Z,6.04
2018-12-26T08:09:59.797Z,6.04
2018-12-26T08:12:47.806Z,6.04
2018-12-26T08:15:30.924Z,6.06
2018-12-26T08:18:19.580Z,6.08
2018-12-26T08:21:00.484Z,6.03
2018-12-26T08:23:48.628Z,5.99
2018-12-26T08:26:29.861Z,6.05
2018-12-26T08:29:17.830Z,5.94
2018-12-26T08:31:58.780Z,6.01
2018-12-26T08:34:47.422Z,6.07
2018-12-26T08:37:28.785Z,6.13
2018-12-26T08:40:16.727Z,6.18
2018-12-26T08:42:57.559Z,6.21
2018-12-26T08:45:45.336Z,6.18
2018-12-26T08:48:26.476Z,6.34
2018-12-26T08:51:14.312Z,6.19
2018-12-26T08:53:54.930Z,6.21
2018-12-26T08:56:42.882Z,6.25
2018-12-26T08:59:24.171Z,6.34
2018-12-26T09:02:12.333Z,6.32
2018-12-26T09:04:53.395Z,6.38
2018-12-26T09:07:41.494Z,6.33
2018-12-26T09:10:22.005Z,6.34
2018-12-26T09:13:10.058Z,6.35
2018-12-26T09:15:51.422Z,6.36
2018-12-26T09:18:39.369Z,6.45
2018-12-26T09:21:20.378Z,6.36
2018-12-26T09:24:08.213Z,6.51
2018-12-26T09:26:50.848Z,6.57
2018-12-26T09:29:38.822Z,6.49
2018-12-26T09:32:20.176Z,6.53
2018-12-26T09:35:08.864Z,6.61
2018-12-26T09:37:49.512Z,6.62
2018-12-26T09:40:37.543Z,6.46
2018-12-26T09:43:18.227Z,6.63
2018-12-26T09:46:06.236Z,6.67
2018-12-26T09:48:47.483Z,6.62
2018-12-26T09:51:35.528Z,6.71
2018-12-26T09:54:07.537Z,6.59
2018-12-26T09:56:55.872Z,6.72
2018-12-26T09:59:37.705Z,6.75
2018-12-26T10:02:25.900Z,6.78
2018-12-26T10:05:07.553Z,6.65
2018-12-26T10:07:55.547Z,6.75
2018-12-26T10:10:37.168Z,6.76
2018-12-26T10:13:25.303Z,6.72
2018-12-26T10:16:06.179Z,6.82
2018-12-26T10:18:54.184Z,6.76
2018-12-26T10:21:35.396Z,6.71
2018-12-26T10:24:23.471Z,6.80
2018-12-26T10:27:04.587Z,6.68
2018-12-26T10:29:34.410Z,6.66
2018-12-26T10:32:15.450Z,6.69
2018-12-26T10:35:03.521Z,6.76
2018-12-26T10:37:32.090Z,6.69
2018-12-26T10:40:20.069Z,6.83
2018-12-26T10:43:02.867Z,6.77
2018-12-26T10:45:50.965Z,6.79
2018-12-26T10:48:31.662Z,6.86
2018-12-26T10:51:19.975Z,6.77
2018-12-26T10:54:00.909Z,6.81
2018-12-26T10:56:49.735Z,6.75
2018-12-26T10:59:28.856Z,6.84
2018-12-26T11:02:16.817Z,6.84
2018-12-26T11:04:58.255Z,6.89
2018-12-26T11:07:46.277Z,6.95
2018-12-26T11:10:14.861Z,6.95
2018-12-26T11:13:02.971Z,6.90
2018-12-26T11:15:43.380Z,6.85
2018-12-26T11:18:12.105Z,6.83
2018-12-26T11:20:51.141Z,6.93
2018-12-26T11:23:39.012Z,6.99
2018-12-26T11:26:20.010Z,6.94
2018-12-26T11:29:08.041Z,7.05
2018-12-26T11:31:50.946Z,7.06
2018-12-26T11:34:39.096Z,7.08
2018-12-26T11:37:20.120Z,7.13
2018-12-26T11:40:09.083Z,7.00
2018-12-26T11:42:49.644Z,7.07
2018-12-26T11:45:37.688Z,7.19
2018-12-26T11:48:18.925Z,7.10
2018-12-26T11:51:06.884Z,7.12
2018-12-26T11:53:48.295Z,7.13
2018-12-26T11:56:36.344Z,7.18
2018-12-26T11:59:17.037Z,7.18
2018-12-26T12:02:05.323Z,7.16
2018-12-26T12:04:33.849Z,7.15
2018-12-26T12:07:21.731Z,7.26
2018-12-26T12:10:02.424Z,7.18
2018-12-26T12:12:50.377Z,7.22
2018-12-26T12:15:32.827Z,7.26
2018-12-26T12:18:21.557Z,7.41
2018-12-26T12:21:02.971Z,7.37
2018-12-26T12:23:50.974Z,7.36
2018-12-26T12:26:32.708Z,7.42
2018-12-26T12:29:01.205Z,7.41
2018-12-26T12:31:42.591Z,7.42
2018-12-26T12:34:30.558Z,7.43
2018-12-26T12:37:00.781Z,7.30
2018-12-26T12:39:50.433Z,7.34
2018-12-26T12:42:31.877Z,7.31
2018-12-26T12:45:19.833Z,7.34
2018-12-26T12:48:01.029Z,7.41
2018-12-26T12:50:29.703Z,7.43
2018-12-26T12:53:10.360Z,7.32
2018-12-26T12:55:51.581Z,7.38
2018-12-26T12:58:32.721Z,7.33
2018-12-26T13:01:13.756Z,7.37
2018-12-26T13:04:01.821Z,7.40
2018-12-26T13:06:42.711Z,7.47
2018-12-26T13:09:30.759Z,7.54
2018-12-26T13:12:11.577Z,7.61
2018-12-26T13:14:59.446Z,7.49
2018-12-26T13:17:28.025Z,7.66
2018-12-26T13:20:15.877Z,7.59
2018-12-26T13:22:56.583Z,7.49
2018-12-26T13:25:44.620Z,7.65
2018-12-26T13:28:25.506Z,7.69
2018-12-26T13:31:13.470Z,7.63
2018-12-26T13:33:54.467Z,7.47
2018-12-26T13:36:42.437Z,7.52
2018-12-26T13:39:23.634Z,7.57
2018-12-26T13:42:11.729Z,7.53
2018-12-26T13:44:53.530Z,7.42
2018-12-26T13:47:41.491Z,7.45
2018-12-26T13:50:23.939Z,7.49
2018-12-26T13:52:52.482Z,7.51
2018-12-26T13:55:32.235Z,7.50
2018-12-26T13:58:20.204Z,7.43
2018-12-26T14:01:01.252Z,7.42
2018-12-26T14:03:49.131Z,7.37
2018-12-26T14:06:30.752Z,7.33
2018-12-26T14:09:18.618Z,7.43
2018-12-26T14:11:59.723Z,7.34
2018-12-26T14:14:49.489Z,7.33
2018-12-26T14:17:31.003Z,7.34
2018-12-26T14:20:18.779Z,7.19
2018-12-26T14:23:00.273Z,7.41
2018-12-26T14:25:48.614Z,7.41
2018-12-26T14:28:29.303Z,7.39
2018-12-26T14:31:17.179Z,7.37
2018-12-26T14:33:58.367Z,7.32
2018-12-26T14:36:46.200Z,7.33
2018-12-26T14:39:14.817Z,7.34
2018-12-26T14:41:55.193Z,7.28
2018-12-26T14:44:43.275Z,7.30
2018-12-26T14:47:24.401Z,7.20
2018-12-26T14:50:12.360Z,7.20
2018-12-26T14:52:53.023Z,7.26
2018-12-26T14:55:34.421Z,7.24
2018-12-26T14:58:15.565Z,7.22
2018-12-26T15:00:56.457Z,7.17
2018-12-26T15:03:44.274Z,7.14
2018-12-26T15:06:24.779Z,7.19
2018-12-26T15:08:54.015Z,7.12
2018-12-26T15:11:22.834Z,7.09
2018-12-26T15:14:10.756Z,7.15
2018-12-26T15:16:51.289Z,7.10
2018-12-26T15:19:39.312Z,7.15
2018-12-26T15:22:20.777Z,7.17
2018-12-26T15:25:08.716Z,7.16
2018-12-26T15:27:49.768Z,7.09
2018-12-26T15:30:37.718Z,7.10
2018-12-26T15:33:19.226Z,7.12
2018-12-26T15:36:07.081Z,7.12
2018-12-26T15:38:48.726Z,7.11
2018-12-26T15:41:37.465Z,6.97
2018-12-26T15:44:18.869Z,7.03
2018-12-26T15:47:06.990Z,6.95
2018-12-26T15:49:48.073Z,6.89
2018-12-26T15:52:35.882Z,7.06
2018-12-26T15:55:16.545Z,7.05
2018-12-26T15:57:57.720Z,6.92
2018-12-26T16:00:45.632Z,7.00
2018-12-26T16:03:28.115Z,6.96
2018-12-26T16:06:15.985Z,6.97
2018-12-26T16:08:58.679Z,6.89
2018-12-26T16:11:39.155Z,6.90
2018-12-26T16:14:20.799Z,6.87
2018-12-26T16:17:08.649Z,6.86
2018-12-26T16:19:49.624Z,6.83
2018-12-26T16:22:39.701Z,6.81
2018-12-26T16:25:40.015Z,6.83
2018-12-26T16:28:27.968Z,6.87
2018-12-26T16:31:09.748Z,6.85
2018-12-26T16:33:57.645Z,6.97
2018-12-26T16:36:38.556Z,6.83
2018-12-26T16:39:35.416Z,6.79
2018-12-26T16:42:17.061Z,6.79
2018-12-26T16:45:12.828Z,6.82
2018-12-26T16:47:54.050Z,6.72
2018-12-26T16:50:26.987Z,6.75
2018-12-26T16:53:15.554Z,6.75
2018-12-26T16:55:54.354Z,6.78
2018-12-26T16:58:42.257Z,6.85
2018-12-26T17:01:23.856Z,6.81
2018-12-26T17:04:11.612Z,6.70
2018-12-26T17:06:53.096Z,6.64
2018-12-26T17:09:41.199Z,6.76
2018-12-26T17:12:22.308Z,6.74
2018-12-26T17:15:10.224Z,6.81
2018-12-26T17:17:51.110Z,6.74
2018-12-26T17:20:39.164Z,6.87
2018-12-26T17:23:20.064Z,6.82
2018-12-26T17:26:07.959Z,6.89
2018-12-26T17:28:48.679Z,6.84
2018-12-26T17:31:36.838Z,6.81
2018-12-26T17:34:17.512Z,6.82
2018-12-26T17:37:05.283Z,6.84
2018-12-26T17:39:44.277Z,6.86
2018-12-26T17:42:32.372Z,6.83
2018-12-26T17:45:18.011Z,6.71
2018-12-26T17:48:05.745Z,6.73
2018-12-26T17:50:48.097Z,6.81
2018-12-26T17:54:14.771Z,6.88
2018-12-26T17:57:01.106Z,6.82
2018-12-26T18:00:16.238Z,7.24
2018-12-26T18:02:56.818Z,7.28
2018-12-26T18:05:44.815Z,7.44
2018-12-26T18:08:26.383Z,7.00
2018-12-26T18:11:14.686Z,6.91
2018-12-26T18:13:55.470Z,6.90
2018-12-26T18:16:43.828Z,7.00
2018-12-26T18:19:25.886Z,7.13
2018-12-26T18:22:14.166Z,7.33
2018-12-26T18:24:55.838Z,7.41
2018-12-26T18:27:44.445Z,7.49
2018-12-26T18:30:25.308Z,7.41
2018-12-26T18:33:13.200Z,7.19
2018-12-26T18:35:54.369Z,7.19
2018-12-26T18:38:42.555Z,6.91
2018-12-26T18:41:23.567Z,6.99
2018-12-26T18:44:11.629Z,7.26
2018-12-26T18:46:52.819Z,7.34
2018-12-26T18:49:40.750Z,7.40
2018-12-26T18:52:21.800Z,7.29
2018-12-26T18:55:02.435Z,7.30
2018-12-26T18:57:41.546Z,7.36
2018-12-26T19:00:11.279Z,7.38
2018-12-26T19:02:51.884Z,7.36
2018-12-26T19:05:39.768Z,7.42
2018-12-26T19:08:20.953Z,7.19
2018-12-26T19:11:08.796Z,7.49
2018-12-26T19:13:50.356Z,7.21
2018-12-26T19:16:38.314Z,7.27
2018-12-26T19:19:19.531Z,7.48
2018-12-26T19:22:07.838Z,7.43
2018-12-26T19:24:49.252Z,7.34
2018-12-26T19:27:37.179Z,7.38
2018-12-26T19:30:20.315Z,7.05
2018-12-26T19:33:09.351Z,6.84
2018-12-26T19:35:52.217Z,6.96
2018-12-26T19:38:40.279Z,6.90
2018-12-26T19:41:23.279Z,6.99
2018-12-26T19:44:11.339Z,6.89
2018-12-26T19:46:54.419Z,6.93
2018-12-26T19:49:42.208Z,6.88
2018-12-26T19:52:24.506Z,6.98
2018-12-26T19:55:12.547Z,6.90
2018-12-26T19:57:54.867Z,6.94
2018-12-26T20:00:42.866Z,6.91
2018-12-26T20:03:23.625Z,7.00
2018-12-26T20:06:11.953Z,6.90
2018-12-26T20:08:53.317Z,6.95
2018-12-26T20:14:48.646Z,6.85
2018-12-26T20:17:36.747Z,6.83
2018-12-26T20:20:19.715Z,6.87
2018-12-26T20:23:07.621Z,6.84
2018-12-26T20:25:50.787Z,6.79
2018-12-26T20:28:39.577Z,6.69
2018-12-26T20:31:22.503Z,6.75
2018-12-26T20:34:12.196Z,6.79
2018-12-26T20:36:55.349Z,6.75
2018-12-26T20:39:44.408Z,6.87
2018-12-26T20:42:27.394Z,6.75
2018-12-26T20:45:16.582Z,6.83
2018-12-26T20:47:59.343Z,6.85
2018-12-26T20:50:48.645Z,6.87
2018-12-26T20:53:31.521Z,6.76
2018-12-26T20:56:21.341Z,6.68
2018-12-26T20:59:04.032Z,6.71
2018-12-26T21:01:52.515Z,6.66
2018-12-26T21:04:35.094Z,6.70
2018-12-26T21:07:24.833Z,6.66
2018-12-26T21:10:25.422Z,6.73
2018-12-26T21:13:15.106Z,6.62
2018-12-26T21:15:57.433Z,6.56
2018-12-26T21:18:45.649Z,6.61
2018-12-26T21:21:27.739Z,6.62
2018-12-26T21:24:17.982Z,6.59
2018-12-26T21:27:01.388Z,6.67
2018-12-26T21:29:51.320Z,6.66
2018-12-26T21:32:34.542Z,6.77
2018-12-26T21:35:24.418Z,6.59
2018-12-26T21:38:07.099Z,6.60
2018-12-26T21:40:55.172Z,6.65
2018-12-26T21:43:37.566Z,6.61
2018-12-26T21:46:27.832Z,6.62
2018-12-26T21:49:10.829Z,6.62
2018-12-26T21:52:00.565Z,6.55
2018-12-26T21:54:41.753Z,6.54
2018-12-26T21:57:30.342Z,6.40
2018-12-26T22:00:12.998Z,6.58
2018-12-26T22:03:01.241Z,6.47
2018-12-26T22:05:42.152Z,6.58
2018-12-26T22:08:30.197Z,6.56
2018-12-26T22:11:11.385Z,6.57
2018-12-26T22:13:59.313Z,6.51
2018-12-26T22:16:41.087Z,6.40
2018-12-26T22:19:28.989Z,6.52
2018-12-26T22:22:09.999Z,6.38
2018-12-26T22:24:58.091Z,6.34
2018-12-26T22:27:38.821Z,6.47
2018-12-26T22:30:26.752Z,6.38
2018-12-26T22:33:08.122Z,6.35
2018-12-26T22:35:56.466Z,6.43
2018-12-26T22:38:37.735Z,6.37
2018-12-26T22:41:25.384Z,6.39
2018-12-26T22:44:05.937Z,6.38
2018-12-26T22:46:53.989Z,6.42
2018-12-26T22:49:35.242Z,6.41
2018-12-26T22:52:23.283Z,6.29
2018-12-26T22:55:04.704Z,6.36
2018-12-26T22:57:33.147Z,6.27
2018-12-26T23:00:15.936Z,6.29
2018-12-26T23:03:04.024Z,6.30
2018-12-26T23:05:45.201Z,6.10
2018-12-26T23:08:33.053Z,6.12
2018-12-26T23:11:15.374Z,6.14
2018-12-26T23:14:03.247Z,6.17
2018-12-26T23:16:43.798Z,6.01
2018-12-26T23:19:31.880Z,6.03
2018-12-26T23:22:13.228Z,5.97
2018-12-26T23:25:01.153Z,6.10
2018-12-26T23:27:42.201Z,6.08
2018-12-26T23:30:30.278Z,6.02
2018-12-26T23:33:12.170Z,5.91
2018-12-26T23:36:00.237Z,6.26
2018-12-26T23:38:42.773Z,6.21
2018-12-26T23:41:30.872Z,6.37
2018-12-26T23:44:11.642Z,6.14
2018-12-26T23:46:59.951Z,6.13
2018-12-26T23:49:40.721Z,6.20
2018-12-26T23:52:28.627Z,6.05
2018-12-26T23:55:09.609Z,6.04
2018-12-26T23:57:57.555Z,6.04
